createdAt,value
2022-11-19T00:02:30.810Z,49.5
2022-11-19T00:10:03.137Z,49.5
2022-11-19T00:17:35.419Z,49.6
2022-11-19T00:25:07.682Z,49.6
2022-11-19T00:32:39.980Z,49.6
2022-11-19T00:40:12.292Z,49.6
2022-11-19T00:47:44.584Z,49.6
2022-11-19T00:55:16.854Z,49.6
2022-11-19T01:02:49.123Z,49.6
2022-11-19T01:10:21.425Z,49.5
2022-11-19T01:17:53.692Z,49.6
2022-11-19T01:25:25.963Z,49.5
2022-11-19T01:32:58.234Z,49.5
2022-11-19T01:40:30.538Z,49.5
2022-11-19T01:48:02.861Z,49.6
2022-11-19T01:55:35.156Z,49.5
2022-11-19T02:03:07.431Z,49.4
2022-11-19T02:10:39.740Z,49.4
2022-11-19T02:18:12.095Z,49.4
2022-11-19T02:25:44.379Z,49.3
2022-11-19T02:33:16.654Z,49.2
2022-11-19T02:40:48.918Z,49.2
2022-11-19T02:48:21.217Z,49.3
2022-11-19T02:55:53.530Z,49.3
2022-11-19T03:03:25.801Z,49.2
2022-11-19T03:10:58.111Z,49.2
2022-11-19T03:18:30.452Z,49.2
2022-11-19T03:26:02.758Z,49.2
2022-11-19T03:33:35.040Z,49.2
2022-11-19T03:41:07.308Z,49.1
2022-11-19T03:48:39.626Z,49.1
2022-11-19T03:56:11.899Z,49.0
2022-11-19T04:03:44.197Z,49.0
2022-11-19T04:18:48.799Z,48.9
2022-11-19T04:26:21.100Z,48.8
2022-11-19T04:33:53.374Z,48.8
2022-11-19T04:41:25.646Z,48.8
2022-11-19T04:48:57.911Z,48.8
2022-11-19T04:56:30.179Z,48.5
2022-11-19T05:04:02.453Z,48.4
2022-11-19T05:11:34.767Z,48.4
2022-11-19T05:19:07.080Z,48.4
2022-11-19T05:26:39.393Z,48.4
2022-11-19T05:34:11.675Z,48.3
2022-11-19T05:41:43.947Z,48.2
2022-11-19T05:49:16.412Z,48.2
2022-11-19T05:56:48.929Z,48.1
2022-11-19T06:04:21.211Z,48.2
2022-11-19T06:11:53.508Z,48.2
2022-11-19T06:19:25.825Z,48.2
2022-11-19T06:26:58.107Z,48.1
2022-11-19T06:32:40.386Z,48.0
2022-11-19T06:33:27.709Z,48.0
2022-11-19T06:34:15.021Z,48.0
2022-11-19T06:35:02.330Z,48.0
2022-11-19T06:35:49.594Z,48.0
2022-11-19T06:36:41.195Z,47.9
2022-11-19T06:37:30.168Z,47.9
2022-11-19T06:38:17.609Z,47.9
2022-11-19T06:39:04.911Z,47.8
2022-11-19T06:39:52.227Z,47.8
2022-11-19T06:40:39.636Z,47.7
2022-11-19T06:41:26.941Z,47.7
2022-11-19T06:42:14.237Z,47.8
2022-11-19T06:43:01.687Z,47.8
2022-11-19T06:43:48.981Z,47.8
2022-11-19T06:44:36.288Z,47.8
2022-11-19T06:45:23.725Z,47.9
2022-11-19T06:46:11.010Z,47.9
2022-11-19T06:46:58.414Z,47.9
2022-11-19T06:47:45.738Z,47.9
2022-11-19T06:48:33.025Z,47.9
2022-11-19T06:49:20.638Z,48.0
2022-11-19T06:50:07.976Z,47.9
2022-11-19T06:50:55.266Z,47.9
2022-11-19T06:51:42.552Z,47.9
2022-11-19T06:52:29.992Z,47.9
2022-11-19T06:53:17.297Z,47.9
2022-11-19T06:54:04.572Z,47.8
2022-11-19T06:54:52.003Z,47.8
2022-11-19T06:55:39.308Z,47.9
2022-11-19T06:56:26.611Z,47.8
2022-11-19T06:57:14.049Z,47.7
2022-11-19T06:58:01.315Z,47.7
2022-11-19T06:58:48.609Z,47.7
2022-11-19T06:59:36.041Z,47.6
2022-11-19T07:00:23.303Z,47.6
2022-11-19T07:01:10.611Z,47.5
2022-11-19T07:01:58.022Z,47.5
2022-11-19T07:02:45.299Z,47.5
2022-11-19T07:03:32.559Z,47.0
2022-11-19T07:04:19.994Z,46.5
2022-11-19T07:05:07.254Z,46.3
2022-11-19T07:05:54.559Z,46.2
2022-11-19T07:06:41.964Z,46.2
2022-11-19T07:07:29.843Z,46.2
2022-11-19T07:08:17.153Z,46.2
2022-11-19T07:09:04.470Z,46.1
2022-11-19T07:09:51.744Z,46.2
2022-11-19T07:10:39.057Z,46.3
2022-11-19T07:11:26.352Z,46.3
2022-11-19T07:12:13.622Z,46.3
2022-11-19T07:13:00.922Z,46.2
2022-11-19T07:13:48.256Z,46.4
2022-11-19T07:14:35.525Z,46.3
2022-11-19T07:15:22.810Z,46.2
2022-11-19T07:16:10.116Z,46.2
2022-11-19T07:16:57.394Z,46.4
2022-11-19T07:17:44.712Z,46.3
2022-11-19T07:18:32.020Z,46.5
2022-11-19T07:19:19.506Z,46.4
2022-11-19T07:20:06.963Z,46.6
2022-11-19T07:20:54.274Z,46.5
2022-11-19T07:21:41.547Z,46.7
2022-11-19T07:22:28.857Z,46.6
2022-11-19T07:23:16.135Z,46.6
2022-11-19T07:24:03.411Z,46.6
2022-11-19T07:24:50.691Z,46.6
2022-11-19T07:25:38.011Z,46.6
2022-11-19T07:26:25.320Z,46.6
2022-11-19T07:27:12.633Z,46.6
2022-11-19T07:27:59.920Z,46.7
2022-11-19T07:28:47.229Z,46.7
2022-11-19T07:29:34.546Z,46.8
2022-11-19T07:30:21.820Z,46.7
2022-11-19T07:31:09.112Z,46.7
2022-11-19T07:31:56.423Z,46.7
2022-11-19T07:32:43.686Z,46.8
2022-11-19T07:33:30.946Z,46.8
2022-11-19T07:34:18.267Z,46.8
2022-11-19T07:35:05.582Z,46.9
2022-11-19T07:35:52.861Z,46.9
2022-11-19T07:36:40.131Z,47.0
2022-11-19T07:37:27.392Z,47.0
2022-11-19T07:38:14.692Z,47.2
2022-11-19T07:39:02.022Z,47.3
2022-11-19T07:39:49.292Z,47.4
2022-11-19T07:40:36.568Z,47.4
2022-11-19T07:41:23.876Z,47.6
2022-11-19T07:42:11.191Z,47.5
2022-11-19T07:42:58.484Z,47.6
2022-11-19T07:43:45.791Z,47.7
2022-11-19T07:44:33.083Z,47.9
2022-11-19T07:45:20.379Z,47.8
2022-11-19T07:46:07.651Z,47.7
2022-11-19T07:46:55.286Z,47.7
2022-11-19T07:47:42.604Z,47.7
2022-11-19T07:48:29.874Z,48.3
2022-11-19T07:49:17.504Z,47.8
2022-11-19T07:50:05.220Z,48.0
2022-11-19T07:50:56.483Z,47.9
2022-11-19T07:51:43.996Z,47.9
2022-11-19T07:52:31.307Z,47.9
2022-11-19T07:53:18.609Z,48.0
2022-11-19T07:54:05.926Z,48.0
2022-11-19T07:54:53.221Z,48.1
2022-11-19T07:55:40.478Z,48.0
2022-11-19T07:56:27.789Z,48.0
2022-11-19T07:57:15.075Z,48.0
2022-11-19T07:58:02.338Z,48.0
2022-11-19T07:58:49.641Z,47.9
2022-11-19T07:59:37.112Z,47.9
2022-11-19T08:00:24.417Z,47.4
2022-11-19T08:01:11.684Z,47.4
2022-11-19T08:01:59.008Z,47.3
2022-11-19T08:02:46.350Z,47.1
2022-11-19T08:03:33.637Z,47.1
2022-11-19T08:04:20.903Z,47.0
2022-11-19T08:05:08.162Z,47.0
2022-11-19T08:05:55.419Z,46.9
2022-11-19T08:06:43.493Z,46.7
2022-11-19T08:07:31.036Z,46.7
2022-11-19T08:08:18.343Z,46.7
2022-11-19T08:09:05.672Z,46.7
2022-11-19T08:09:52.985Z,46.8
2022-11-19T08:10:40.293Z,46.7
2022-11-19T08:11:27.568Z,46.8
2022-11-19T08:12:14.923Z,46.8
2022-11-19T08:13:02.190Z,46.7
2022-11-19T08:13:49.462Z,46.6
2022-11-19T08:14:36.777Z,46.5
2022-11-19T08:15:24.048Z,46.4
2022-11-19T08:16:11.314Z,46.3
2022-11-19T08:16:58.705Z,46.2
2022-11-19T08:17:46.022Z,46.3
2022-11-19T08:18:33.325Z,46.4
2022-11-19T08:19:20.799Z,46.5
2022-11-19T08:20:08.268Z,46.5
2022-11-19T08:20:55.674Z,46.4
2022-11-19T08:21:42.997Z,46.3
2022-11-19T08:22:30.308Z,46.2
2022-11-19T08:23:17.584Z,46.2
2022-11-19T08:24:04.904Z,46.4
2022-11-19T08:24:52.184Z,46.4
2022-11-19T08:25:39.452Z,46.3
2022-11-19T08:26:26.778Z,46.4
2022-11-19T08:27:14.054Z,46.3
2022-11-19T08:28:01.361Z,46.4
2022-11-19T08:28:48.631Z,46.5
2022-11-19T08:29:35.898Z,46.5
2022-11-19T08:30:23.188Z,46.7
2022-11-19T08:31:10.454Z,46.7
2022-11-19T08:31:57.753Z,46.8
2022-11-19T08:32:45.065Z,46.9
2022-11-19T08:33:32.372Z,46.9
2022-11-19T08:34:19.953Z,47.0
2022-11-19T08:35:07.467Z,47.1
2022-11-19T08:35:54.762Z,47.1
2022-11-19T08:36:42.031Z,47.1
2022-11-19T08:37:29.330Z,47.1
2022-11-19T08:38:16.775Z,47.0
2022-11-19T08:39:04.145Z,46.9
2022-11-19T08:39:51.453Z,46.9
2022-11-19T08:40:38.724Z,46.9
2022-11-19T08:41:25.999Z,46.6
2022-11-19T08:42:13.309Z,46.5
2022-11-19T08:43:00.633Z,46.2
2022-11-19T08:43:47.956Z,46.2
2022-11-19T08:44:35.224Z,46.2
2022-11-19T08:45:22.497Z,46.1
2022-11-19T08:46:09.767Z,46.0
2022-11-19T08:46:57.056Z,45.9
2022-11-19T08:47:44.331Z,45.8
2022-11-19T08:48:32.099Z,45.8
2022-11-19T08:49:19.563Z,45.8
2022-11-19T08:50:06.863Z,46.0
2022-11-19T08:50:54.158Z,46.0
2022-11-19T08:51:41.430Z,46.1
2022-11-19T08:52:28.737Z,46.2
2022-11-19T08:53:16.048Z,46.2
2022-11-19T08:54:03.315Z,46.3
2022-11-19T08:54:51.233Z,46.3
2022-11-19T08:55:38.786Z,46.4
2022-11-19T08:56:26.051Z,46.4
2022-11-19T08:57:13.346Z,46.5
2022-11-19T08:58:00.753Z,46.6
2022-11-19T08:58:48.014Z,46.6
2022-11-19T08:59:35.316Z,46.8
2022-11-19T09:00:22.856Z,46.9
2022-11-19T09:01:10.250Z,47.0
2022-11-19T09:01:57.566Z,47.0
2022-11-19T09:02:44.952Z,47.0
2022-11-19T09:03:32.234Z,47.1
2022-11-19T09:04:19.619Z,47.2
2022-11-19T09:05:10.643Z,47.2
2022-11-19T09:06:00.661Z,47.2
2022-11-19T09:06:47.960Z,47.3
2022-11-19T09:07:35.299Z,47.3
2022-11-19T09:08:22.636Z,47.3
2022-11-19T09:09:10.032Z,47.3
2022-11-19T09:09:57.345Z,47.4
2022-11-19T09:10:44.652Z,47.4
2022-11-19T09:11:31.979Z,47.4
2022-11-19T09:12:19.260Z,47.4
2022-11-19T09:13:06.548Z,47.4
2022-11-19T09:13:53.887Z,47.4
2022-11-19T09:14:41.177Z,47.4
2022-11-19T09:15:28.447Z,47.4
2022-11-19T09:16:15.954Z,47.4
2022-11-19T09:17:03.214Z,47.4
2022-11-19T09:17:50.521Z,47.4
2022-11-19T09:18:37.876Z,47.4
2022-11-19T09:19:25.134Z,47.4
2022-11-19T09:20:12.456Z,47.4
2022-11-19T09:20:59.847Z,47.4
2022-11-19T09:21:47.161Z,47.5
2022-11-19T09:22:34.465Z,47.5
2022-11-19T09:23:21.854Z,47.5
2022-11-19T09:24:09.119Z,47.4
2022-11-19T09:24:56.417Z,47.4
2022-11-19T09:25:43.820Z,47.5
2022-11-19T09:26:31.129Z,47.5
2022-11-19T09:27:18.395Z,47.5
2022-11-19T09:28:05.824Z,47.5
2022-11-19T09:28:53.134Z,47.5
2022-11-19T09:29:40.407Z,47.5
2022-11-19T09:30:27.835Z,47.5
2022-11-19T09:31:15.123Z,47.4
2022-11-19T09:32:02.429Z,47.4
2022-11-19T09:32:49.855Z,47.4
2022-11-19T09:33:37.161Z,47.4
2022-11-19T09:34:24.422Z,47.3
2022-11-19T09:35:11.913Z,47.3
2022-11-19T09:35:59.191Z,47.3
2022-11-19T09:36:46.493Z,47.3
2022-11-19T09:37:33.959Z,47.3
2022-11-19T09:38:21.268Z,47.2
2022-11-19T09:39:08.576Z,47.2
2022-11-19T09:39:55.966Z,47.3
2022-11-19T09:40:43.262Z,47.3
2022-11-19T09:41:30.571Z,47.2
2022-11-19T09:42:18.002Z,47.3
2022-11-19T09:43:05.267Z,47.3
2022-11-19T09:43:52.531Z,47.3
2022-11-19T09:44:40.006Z,47.2
2022-11-19T09:45:27.321Z,47.3
2022-11-19T09:46:14.595Z,47.4
2022-11-19T09:47:02.035Z,47.2
2022-11-19T09:47:49.336Z,47.0
2022-11-19T09:48:36.636Z,46.5
2022-11-19T09:49:24.035Z,46.1
2022-11-19T09:50:11.336Z,46.0
2022-11-19T09:50:58.693Z,45.7
2022-11-19T09:51:46.074Z,45.5
2022-11-19T09:52:33.351Z,45.5
2022-11-19T09:53:20.666Z,45.4
2022-11-19T09:54:08.046Z,45.2
2022-11-19T09:54:55.345Z,45.1
2022-11-19T09:55:42.649Z,45.1
2022-11-19T09:56:30.050Z,45.0
2022-11-19T09:57:17.373Z,45.1
2022-11-19T09:58:04.708Z,45.1
2022-11-19T09:58:52.103Z,45.5
2022-11-19T09:59:39.420Z,45.2
2022-11-19T10:00:26.750Z,45.1
2022-11-19T10:01:14.147Z,45.1
2022-11-19T10:02:01.449Z,45.1
2022-11-19T10:02:48.796Z,45.2
2022-11-19T10:03:36.192Z,45.3
2022-11-19T10:04:23.474Z,45.3
2022-11-19T10:05:10.747Z,45.3
2022-11-19T10:05:58.209Z,45.4
2022-11-19T10:06:45.487Z,45.5
2022-11-19T10:07:32.857Z,45.8
2022-11-19T10:08:20.245Z,45.5
2022-11-19T10:09:07.511Z,45.5
2022-11-19T10:09:54.774Z,45.5
2022-11-19T10:10:42.229Z,45.4
2022-11-19T10:11:29.545Z,45.4
2022-11-19T10:12:16.873Z,45.3
2022-11-19T10:13:04.215Z,45.2
2022-11-19T10:13:51.483Z,45.2
2022-11-19T10:14:38.780Z,45.2
2022-11-19T10:15:26.205Z,45.3
2022-11-19T10:16:13.523Z,45.3
2022-11-19T10:17:00.847Z,45.4
2022-11-19T10:17:48.221Z,46.0
2022-11-19T10:18:35.499Z,45.5
2022-11-19T10:19:22.823Z,45.5
2022-11-19T10:20:10.952Z,45.6
2022-11-19T10:20:58.236Z,45.5
2022-11-19T10:21:45.531Z,45.3
2022-11-19T10:22:32.802Z,45.2
2022-11-19T10:23:20.235Z,45.1
2022-11-19T10:24:07.494Z,44.9
2022-11-19T10:24:54.769Z,45.0
2022-11-19T10:25:42.182Z,44.9
2022-11-19T10:26:29.443Z,44.9
2022-11-19T10:27:16.750Z,44.7
2022-11-19T10:28:04.151Z,44.6
2022-11-19T10:28:51.450Z,44.5
2022-11-19T10:29:38.722Z,44.4
2022-11-19T10:30:26.154Z,44.3
2022-11-19T10:31:13.411Z,44.2
2022-11-19T10:32:00.741Z,44.2
2022-11-19T10:32:48.145Z,44.1
2022-11-19T10:33:35.420Z,44.2
2022-11-19T10:34:22.734Z,44.4
2022-11-19T10:35:10.121Z,44.6
2022-11-19T10:35:57.392Z,44.9
2022-11-19T10:36:44.667Z,44.8
2022-11-19T10:37:32.130Z,44.9
2022-11-19T10:38:19.404Z,44.9
2022-11-19T10:39:06.705Z,45.8
2022-11-19T10:39:54.124Z,45.4
2022-11-19T10:40:41.432Z,45.5
2022-11-19T10:41:28.768Z,45.6
2022-11-19T10:42:16.147Z,45.7
2022-11-19T10:43:03.421Z,45.9
2022-11-19T10:43:50.717Z,45.9
2022-11-19T10:44:38.126Z,46.0
2022-11-19T10:45:25.399Z,46.1
2022-11-19T10:46:12.662Z,46.1
2022-11-19T10:47:00.074Z,46.1
2022-11-19T10:47:47.384Z,46.2
2022-11-19T10:48:34.714Z,46.2
2022-11-19T10:49:22.131Z,46.2
2022-11-19T10:50:11.390Z,46.2
2022-11-19T10:50:58.890Z,46.3
2022-11-19T10:51:46.246Z,46.4
2022-11-19T10:52:33.506Z,46.4
2022-11-19T10:53:20.774Z,46.4
2022-11-19T10:54:08.206Z,46.4
2022-11-19T10:54:55.492Z,46.4
2022-11-19T10:55:42.797Z,46.4
2022-11-19T10:56:30.152Z,46.5
2022-11-19T10:57:17.426Z,46.5
2022-11-19T10:58:04.696Z,46.5
2022-11-19T10:58:52.097Z,46.5
2022-11-19T10:59:39.405Z,46.5
2022-11-19T11:00:26.866Z,46.6
2022-11-19T11:01:14.200Z,46.6
2022-11-19T11:02:01.523Z,46.7
2022-11-19T11:02:48.795Z,46.7
2022-11-19T11:03:36.154Z,46.7
2022-11-19T11:04:23.454Z,46.7
2022-11-19T11:05:10.761Z,46.7
2022-11-19T11:05:58.114Z,46.7
2022-11-19T11:06:45.425Z,46.8
2022-11-19T11:07:32.938Z,46.8
2022-11-19T11:08:20.279Z,46.8
2022-11-19T11:09:07.560Z,46.8
2022-11-19T11:09:54.815Z,46.9
2022-11-19T11:10:42.294Z,46.9
2022-11-19T11:11:29.613Z,46.8
2022-11-19T11:12:16.929Z,46.8
2022-11-19T11:13:04.255Z,46.9
2022-11-19T11:13:51.556Z,46.9
2022-11-19T11:14:38.866Z,47.0
2022-11-19T11:15:26.231Z,47.0
2022-11-19T11:16:13.532Z,47.2
2022-11-19T11:17:00.857Z,47.1
2022-11-19T11:17:48.245Z,47.4
2022-11-19T11:18:35.560Z,47.2
2022-11-19T11:19:23.153Z,47.1
2022-11-19T11:20:10.687Z,47.2
2022-11-19T11:20:58.001Z,47.3
2022-11-19T11:21:45.318Z,47.5
2022-11-19T11:22:32.629Z,47.8
2022-11-19T11:23:19.939Z,47.5
2022-11-19T11:24:07.214Z,47.6
2022-11-19T11:24:54.530Z,47.5
2022-11-19T11:25:41.799Z,47.6
2022-11-19T11:26:29.071Z,47.5
2022-11-19T11:27:16.399Z,47.4
2022-11-19T11:28:03.679Z,47.3
2022-11-19T11:28:50.939Z,47.2
2022-11-19T11:29:38.244Z,47.3
2022-11-19T11:30:25.554Z,47.5
2022-11-19T11:31:12.814Z,47.3
2022-11-19T11:32:00.507Z,47.2
2022-11-19T11:32:47.871Z,47.2
2022-11-19T11:33:35.203Z,47.2
2022-11-19T11:34:22.510Z,47.2
2022-11-19T11:35:13.545Z,47.2
2022-11-19T11:36:03.334Z,47.2
2022-11-19T11:36:50.789Z,47.1
2022-11-19T11:37:38.092Z,47.1
2022-11-19T11:38:25.402Z,47.0
2022-11-19T11:39:12.795Z,47.0
2022-11-19T11:40:00.122Z,47.0
2022-11-19T11:40:47.441Z,47.0
2022-11-19T11:42:32.151Z,46.9
2022-11-19T11:43:19.560Z,46.9
2022-11-19T11:44:06.846Z,46.9
2022-11-19T11:44:54.152Z,46.9
2022-11-19T11:45:41.564Z,46.9
2022-11-19T11:46:28.871Z,47.0
2022-11-19T11:47:16.157Z,46.9
2022-11-19T11:48:03.596Z,46.9
2022-11-19T11:48:51.486Z,46.9
2022-11-19T11:49:38.906Z,46.9
2022-11-19T11:50:26.283Z,46.6
2022-11-19T11:51:13.590Z,46.4
2022-11-19T11:52:00.956Z,45.9
2022-11-19T11:52:48.279Z,45.5
2022-11-19T11:53:35.577Z,45.2
2022-11-19T11:54:22.882Z,45.0
2022-11-19T11:55:10.247Z,45.1
2022-11-19T11:55:57.520Z,45.0
2022-11-19T11:56:44.828Z,45.0
2022-11-19T11:57:32.191Z,45.1
2022-11-19T11:58:19.489Z,45.0
2022-11-19T11:59:06.812Z,45.0
2022-11-19T11:59:54.169Z,45.1
2022-11-19T12:00:41.434Z,45.0
2022-11-19T12:01:28.712Z,45.0
2022-11-19T12:02:16.143Z,45.0
2022-11-19T12:03:03.440Z,45.0
2022-11-19T12:03:55.126Z,45.0
2022-11-19T12:04:42.790Z,44.9
2022-11-19T12:05:30.230Z,44.6
2022-11-19T12:06:17.592Z,44.5
2022-11-19T12:07:04.910Z,44.5
2022-11-19T12:07:52.303Z,44.4
2022-11-19T12:08:39.625Z,44.2
2022-11-19T12:09:26.956Z,44.3
2022-11-19T12:10:14.331Z,44.5
2022-11-19T12:11:01.635Z,44.7
2022-11-19T12:11:48.937Z,44.9
2022-11-19T12:12:36.369Z,45.0
2022-11-19T12:13:23.643Z,45.2
2022-11-19T12:14:11.404Z,45.3
2022-11-19T12:14:58.928Z,45.5
2022-11-19T12:15:46.315Z,45.7
2022-11-19T12:23:18.599Z,45.8
2022-11-19T12:30:50.906Z,46.2
2022-11-19T12:38:23.175Z,46.6
2022-11-19T12:45:55.444Z,46.8
2022-11-19T12:53:27.723Z,47.0
2022-11-19T13:01:00.022Z,47.1
2022-11-19T13:08:32.382Z,47.0
2022-11-19T13:16:04.658Z,47.0
2022-11-19T13:23:36.962Z,47.0
2022-11-19T13:31:09.239Z,47.1
2022-11-19T13:38:41.513Z,47.2
2022-11-19T13:46:13.780Z,47.2
2022-11-19T13:53:46.115Z,47.3
2022-11-19T14:01:18.493Z,47.3
2022-11-19T14:08:50.805Z,47.3
2022-11-19T14:16:23.105Z,47.3
2022-11-19T14:23:55.424Z,47.3
2022-11-19T14:31:27.737Z,47.3
2022-11-19T14:39:00.004Z,47.4
2022-11-19T14:46:32.273Z,47.4
2022-11-19T14:54:04.593Z,47.4
2022-11-19T15:01:37.068Z,47.4
2022-11-19T15:09:09.382Z,47.5
2022-11-19T15:16:41.655Z,47.4
2022-11-19T15:24:13.957Z,47.4
2022-11-19T15:31:46.265Z,47.4
2022-11-19T15:39:18.839Z,47.4
2022-11-19T15:46:51.270Z,47.3
2022-11-19T15:54:23.581Z,47.3
2022-11-19T16:01:55.904Z,47.3
2022-11-19T16:09:28.210Z,47.3
2022-11-19T16:17:00.509Z,47.3
2022-11-19T16:24:32.786Z,47.3
2022-11-19T16:32:05.099Z,47.2
2022-11-19T16:39:37.383Z,47.2
2022-11-19T16:47:09.654Z,47.1
2022-11-19T16:54:41.919Z,47.1
2022-11-19T17:02:14.192Z,47.2
2022-11-19T17:09:46.491Z,47.1
2022-11-19T17:17:18.804Z,47.1
2022-11-19T17:24:51.082Z,47.0
2022-11-19T17:32:23.390Z,46.9
2022-11-19T17:39:55.721Z,46.8
2022-11-19T17:47:28.058Z,46.9
2022-11-19T17:55:00.900Z,47.0
2022-11-19T17:55:53.161Z,46.9
2022-11-19T17:56:40.461Z,46.8
2022-11-19T17:57:27.771Z,46.9
2022-11-19T18:05:00.095Z,46.8
2022-11-19T18:12:32.367Z,47.2
2022-11-19T18:20:04.673Z,47.1
2022-11-19T18:27:36.984Z,47.1
2022-11-19T18:35:09.349Z,47.1
2022-11-19T18:42:41.660Z,47.0
2022-11-19T18:50:13.936Z,47.0
2022-11-19T18:57:46.207Z,47.1
2022-11-19T19:05:18.494Z,47.1
2022-11-19T19:12:50.761Z,47.0
2022-11-19T19:20:23.080Z,46.9
2022-11-19T19:27:55.390Z,47.1
2022-11-19T19:35:27.659Z,47.1
2022-11-19T19:42:59.923Z,47.1
2022-11-19T19:50:32.229Z,47.2
2022-11-19T19:58:04.547Z,47.1
2022-11-19T20:05:36.890Z,47.2
2022-11-19T20:13:09.203Z,47.3
2022-11-19T20:20:41.948Z,47.2
2022-11-19T20:28:14.228Z,47.2
2022-11-19T20:35:46.493Z,47.3
2022-11-19T20:43:18.801Z,47.3
2022-11-19T20:50:51.066Z,47.3
2022-11-19T20:58:23.337Z,47.4
2022-11-19T21:05:55.605Z,47.5
2022-11-19T21:13:27.879Z,47.4
2022-11-19T21:21:00.193Z,47.4
2022-11-19T21:28:32.508Z,47.4
2022-11-19T21:36:04.814Z,47.4
2022-11-19T21:43:37.138Z,47.4
2022-11-19T21:51:09.430Z,47.4
2022-11-19T21:58:41.692Z,47.4
2022-11-19T22:06:13.966Z,47.4
2022-11-19T22:13:46.269Z,47.5
2022-11-19T22:21:18.588Z,47.5
2022-11-19T22:28:51.130Z,47.6
2022-11-19T22:36:23.391Z,47.6
2022-11-19T22:43:55.692Z,47.6
2022-11-19T22:51:27.969Z,47.6
2022-11-19T22:59:00.241Z,47.7
2022-11-19T23:06:32.507Z,47.7
2022-11-19T23:14:04.783Z,47.7
2022-11-19T23:21:37.058Z,48.0
2022-11-19T23:29:09.352Z,48.0
2022-11-19T23:36:41.663Z,48.0
2022-11-19T23:44:13.981Z,48.0
2022-11-19T23:51:46.266Z,48.1
2022-11-19T23:59:23.045Z,48.1
